createdAt,value
2022-09-03T00:00:56.884Z,21.87
2022-09-03T00:03:31.546Z,15.63
2022-09-03T00:06:10.938Z,12.67
2022-09-03T00:08:45.587Z,13.90
2022-09-03T00:11:21.088Z,12.40
2022-09-03T00:13:56.990Z,13.13
2022-09-03T00:16:31.797Z,14.67
2022-09-03T00:19:04.537Z,13.60
2022-09-03T00:21:44.077Z,14.97
2022-09-03T00:24:16.238Z,17.40
2022-09-03T00:26:49.194Z,14.63
2022-09-03T00:29:21.137Z,15.00
2022-09-03T00:31:54.909Z,16.17
2022-09-03T00:34:28.239Z,11.87
2022-09-03T00:36:57.013Z,11.67
2022-09-03T00:39:28.260Z,10.20
2022-09-03T00:42:10.611Z,10.87
2022-09-03T00:44:58.450Z,10.80
2022-09-03T00:47:37.255Z,9.77
2022-09-03T00:50:13.150Z,11.10
2022-09-03T00:52:52.864Z,10.47
2022-09-03T00:55:33.426Z,9.70
2022-09-03T00:58:22.280Z,14.57
2022-09-03T01:00:53.135Z,11.37
2022-09-03T01:03:33.725Z,11.60
2022-09-03T01:06:14.687Z,11.10
2022-09-03T01:09:04.692Z,10.80
2022-09-03T01:11:45.852Z,16.17
2022-09-03T01:14:22.417Z,15.07
2022-09-03T01:16:57.595Z,13.27
2022-09-03T01:19:58.717Z,13.30
2022-09-03T01:22:48.791Z,13.77
2022-09-03T01:25:32.509Z,8.53
2022-09-03T01:28:20.761Z,16.27
2022-09-03T01:30:58.713Z,9.17
2022-09-03T01:33:35.799Z,9.67
2022-09-03T01:36:12.807Z,9.80
2022-09-03T01:38:48.417Z,8.93
2022-09-03T01:41:46.519Z,11.77
2022-09-03T01:44:26.622Z,8.73
2022-09-03T01:47:04.596Z,11.67
2022-09-03T01:49:37.681Z,16.47
2022-09-03T01:52:14.887Z,104.47
2022-09-03T01:54:53.523Z,58.57
2022-09-03T01:57:42.608Z,54.87
2022-09-03T02:00:14.472Z,51.60
2022-09-03T02:02:48.202Z,39.43
2022-09-03T02:05:20.488Z,45.43
2022-09-03T02:07:52.063Z,45.53
2022-09-03T02:10:22.678Z,40.73
2022-09-03T02:12:55.735Z,42.77
2022-09-03T02:15:28.166Z,39.23
2022-09-03T02:18:03.066Z,43.10
2022-09-03T02:20:32.521Z,42.27
2022-09-03T02:23:01.631Z,45.07
2022-09-03T02:25:35.015Z,37.43
2022-09-03T02:28:05.287Z,36.93
2022-09-03T02:30:40.916Z,46.57
2022-09-03T02:33:09.594Z,38.57
2022-09-03T02:35:38.373Z,45.23
2022-09-03T02:38:14.549Z,35.83
2022-09-03T02:40:43.325Z,39.07
2022-09-03T02:43:16.650Z,39.33
2022-09-03T02:45:49.684Z,40.30
2022-09-03T02:48:24.238Z,47.73
2022-09-03T02:50:53.074Z,46.07
2022-09-03T02:53:21.904Z,55.47
2022-09-03T02:55:50.645Z,56.57
2022-09-03T02:58:19.457Z,68.53
2022-09-03T03:00:49.870Z,67.37
2022-09-03T03:03:18.529Z,69.40
2022-09-03T03:05:49.938Z,70.13
2022-09-03T03:08:21.796Z,72.67
2022-09-03T03:10:52.332Z,66.57
2022-09-03T03:13:20.965Z,65.93
2022-09-03T03:15:51.048Z,70.47
2022-09-03T03:18:20.736Z,75.53
2022-09-03T03:20:49.561Z,71.40
2022-09-03T03:23:18.250Z,94.70
2022-09-03T03:25:46.944Z,89.03
2022-09-03T03:28:15.741Z,82.07
2022-09-03T03:30:47.744Z,69.53
2022-09-03T03:33:17.912Z,61.70
2022-09-03T03:35:46.851Z,67.50
2022-09-03T03:38:15.506Z,66.03
2022-09-03T03:40:44.169Z,67.50
2022-09-03T03:43:12.726Z,60.87
2022-09-03T03:45:41.449Z,67.53
2022-09-03T03:48:10.078Z,74.13
2022-09-03T03:50:40.555Z,61.27
2022-09-03T03:53:09.151Z,69.53
2022-09-03T03:55:39.392Z,62.73
2022-09-03T03:58:07.997Z,59.13
2022-09-03T04:00:39.655Z,59.97
2022-09-03T04:03:08.425Z,55.13
2022-09-03T04:05:39.716Z,57.73
2022-09-03T04:08:16.415Z,56.53
2022-09-03T04:10:45.011Z,56.43
2022-09-03T04:13:13.694Z,54.93
2022-09-03T04:15:42.596Z,52.03
2022-09-03T04:18:11.219Z,56.00
2022-09-03T04:20:40.061Z,53.20
2022-09-03T04:23:08.704Z,52.70
2022-09-03T04:25:38.847Z,58.50
2022-09-03T04:28:07.424Z,58.00
2022-09-03T04:30:36.112Z,55.60
2022-09-03T04:33:04.949Z,50.60
2022-09-03T04:35:35.954Z,53.17
2022-09-03T04:38:06.026Z,47.47
2022-09-03T04:40:34.987Z,44.97
2022-09-03T04:43:05.621Z,51.20
2022-09-03T04:45:34.295Z,45.77
2022-09-03T04:48:04.261Z,47.57
2022-09-03T04:50:35.778Z,46.37
2022-09-03T04:53:08.110Z,42.77
2022-09-03T04:55:37.545Z,40.27
2022-09-03T04:58:09.230Z,45.27
2022-09-03T05:00:38.420Z,40.83
2022-09-03T05:03:07.099Z,42.17
2022-09-03T05:05:35.888Z,37.00
2022-09-03T05:08:06.019Z,35.67
2022-09-03T05:10:35.109Z,39.90
2022-09-03T05:13:06.108Z,35.27
2022-09-03T05:15:36.773Z,30.20
2022-09-03T05:18:05.737Z,34.00
2022-09-03T05:20:34.665Z,42.70
2022-09-03T05:23:05.247Z,36.43
2022-09-03T05:25:34.025Z,41.23
2022-09-03T05:28:03.226Z,31.00
2022-09-03T05:30:32.486Z,37.03
2022-09-03T05:33:02.654Z,38.27
2022-09-03T05:35:31.284Z,34.77
2022-09-03T05:38:01.909Z,39.40
2022-09-03T05:40:31.822Z,34.80
2022-09-03T05:43:00.384Z,41.00
2022-09-03T05:45:29.954Z,35.87
2022-09-03T05:48:03.599Z,36.03
2022-09-03T05:50:32.233Z,28.00
2022-09-03T05:53:00.989Z,28.00
2022-09-03T05:55:30.310Z,33.13
2022-09-03T05:57:58.909Z,33.53
2022-09-03T06:00:28.068Z,45.60
2022-09-03T06:02:58.605Z,64.17
2022-09-03T06:05:28.756Z,67.43
2022-09-03T06:07:57.426Z,76.93
2022-09-03T06:10:30.700Z,76.50
2022-09-03T06:13:04.158Z,71.17
2022-09-03T06:15:33.007Z,76.87
2022-09-03T06:18:01.710Z,105.23
2022-09-03T06:20:36.420Z,47.43
2022-09-03T06:23:05.928Z,40.17
2022-09-03T06:25:34.600Z,181.97
2022-09-03T06:28:03.804Z,285.17
2022-09-03T06:30:32.470Z,507.30
2022-09-03T06:33:01.238Z,422.07
2022-09-03T06:35:30.011Z,468.73
2022-09-03T06:38:06.730Z,206.10
2022-09-03T06:40:35.470Z,602.60
2022-09-03T06:43:04.049Z,669.13
2022-09-03T06:45:32.914Z,641.63
2022-09-03T06:48:01.598Z,633.97
2022-09-03T06:50:34.535Z,651.70
2022-09-03T06:53:06.602Z,626.50
2022-09-03T06:55:35.635Z,159.47
2022-09-03T06:58:04.236Z,32.17
2022-09-03T07:00:32.875Z,30.37
2022-09-03T07:03:03.933Z,30.83
2022-09-03T07:05:33.419Z,27.30
2022-09-03T07:08:03.257Z,307.17
2022-09-03T07:10:35.367Z,207.87
2022-09-03T07:13:04.255Z,317.83
2022-09-03T07:15:33.260Z,297.10
2022-09-03T07:18:02.875Z,157.87
2022-09-03T07:20:32.313Z,217.93
2022-09-03T07:23:00.965Z,187.90
2022-09-03T07:25:31.085Z,212.97
2022-09-03T07:28:01.388Z,274.25
2022-09-03T07:30:30.021Z,239.50
2022-09-03T07:33:02.553Z,181.90
2022-09-03T07:35:31.152Z,184.82
2022-09-03T07:37:59.721Z,202.98
2022-09-03T07:40:29.727Z,134.50
2022-09-03T07:43:04.962Z,400.40
2022-09-03T07:45:33.798Z,403.55
2022-09-03T07:48:02.658Z,506.33
2022-09-03T07:50:37.778Z,438.92
2022-09-03T07:53:06.606Z,364.33
2022-09-03T07:55:35.511Z,209.95
2022-09-03T07:58:05.796Z,81.40
2022-09-03T08:00:36.354Z,139.20
2022-09-03T08:03:08.598Z,261.08
2022-09-03T08:05:38.881Z,215.63
2022-09-03T08:08:07.973Z,265.05
2022-09-03T08:10:38.520Z,564.50
2022-09-03T08:13:11.726Z,460.80
2022-09-03T08:15:43.191Z,460.05
2022-09-03T08:18:12.655Z,80.93
2022-09-03T08:20:41.289Z,290.55
2022-09-03T08:23:09.979Z,208.18
2022-09-03T08:25:38.655Z,98.78
2022-09-03T08:28:08.614Z,185.98
2022-09-03T08:30:38.371Z,48.22
2022-09-03T08:33:07.410Z,31.92
2022-09-03T08:35:38.403Z,15.18
2022-09-03T08:38:09.075Z,12.23
2022-09-03T08:40:41.186Z,10.48
2022-09-03T08:43:17.712Z,10.68
2022-09-03T08:45:47.525Z,13.60
2022-09-03T08:48:25.903Z,14.63
2022-09-03T08:51:00.360Z,19.25
2022-09-03T08:53:37.822Z,25.67
2022-09-03T08:56:11.665Z,25.17
2022-09-03T08:58:44.438Z,22.02
2022-09-03T09:01:24.515Z,16.67
2022-09-03T09:04:03.761Z,9.15
2022-09-03T09:06:42.309Z,12.50
2022-09-03T09:09:32.157Z,6.32
2022-09-03T09:12:16.054Z,8.32
2022-09-03T09:14:53.690Z,8.82
2022-09-03T09:17:43.602Z,7.65
2022-09-03T09:20:20.634Z,62.60
2022-09-03T09:22:53.538Z,9.25
2022-09-03T09:25:24.530Z,7.80
2022-09-03T09:27:57.107Z,7.45
2022-09-03T09:30:27.826Z,8.13
2022-09-03T09:32:56.568Z,9.35
2022-09-03T09:35:25.968Z,7.07
2022-09-03T09:37:56.074Z,8.55
2022-09-03T09:40:34.060Z,8.18
2022-09-03T09:43:07.701Z,10.20
2022-09-03T09:45:40.998Z,16.08
2022-09-03T09:48:22.326Z,15.27
2022-09-03T09:50:51.166Z,18.55
2022-09-03T09:53:21.894Z,12.40
2022-09-03T09:55:55.745Z,15.50
2022-09-03T09:58:26.128Z,15.80
2022-09-03T10:01:03.406Z,14.15
2022-09-03T10:03:35.966Z,15.38
2022-09-03T10:06:21.460Z,17.27
2022-09-03T10:08:50.521Z,17.83
2022-09-03T10:11:23.874Z,16.67
2022-09-03T10:13:53.785Z,17.65
2022-09-03T10:16:29.075Z,17.25
2022-09-03T10:19:06.442Z,18.60
2022-09-03T10:21:43.344Z,17.73
2022-09-03T10:24:31.860Z,17.55
2022-09-03T10:27:00.533Z,18.48
2022-09-03T10:29:30.380Z,14.30
2022-09-03T10:32:23.343Z,17.83
2022-09-03T10:35:03.673Z,20.00
2022-09-03T10:37:41.196Z,18.92
2022-09-03T10:40:30.959Z,21.55
2022-09-03T10:43:16.134Z,17.17
2022-09-03T10:45:59.509Z,20.52
2022-09-03T10:48:50.369Z,19.02
2022-09-03T10:51:21.932Z,17.77
2022-09-03T10:54:06.513Z,109.45
2022-09-03T10:56:44.011Z,146.18
2022-09-03T10:59:30.888Z,18.02
2022-09-03T11:02:07.412Z,23.33
2022-09-03T11:04:49.537Z,20.83
2022-09-03T11:07:22.890Z,84.88
2022-09-03T11:09:56.736Z,19.27
2022-09-03T11:12:31.006Z,18.55
2022-09-03T11:15:06.080Z,20.10
2022-09-03T11:17:40.418Z,20.45
2022-09-03T11:20:16.460Z,18.45
2022-09-03T11:22:46.570Z,20.77
2022-09-03T11:25:19.289Z,22.08
2022-09-03T11:27:59.133Z,114.57
2022-09-03T11:30:38.602Z,20.23
2022-09-03T11:33:11.843Z,20.10
2022-09-03T11:35:43.909Z,19.95
2022-09-03T11:38:27.536Z,22.38
2022-09-03T11:41:02.766Z,19.30
2022-09-03T11:43:33.566Z,22.92
2022-09-03T11:46:12.064Z,20.75
2022-09-03T11:48:44.316Z,21.90
2022-09-03T11:51:32.386Z,27.08
2022-09-03T11:54:29.011Z,24.20
2022-09-03T11:57:15.024Z,22.83
2022-09-03T11:59:45.339Z,20.13
2022-09-03T12:02:28.252Z,24.00
2022-09-03T12:05:16.248Z,24.05
2022-09-03T12:08:09.074Z,22.58
2022-09-03T12:10:47.008Z,22.58
2022-09-03T12:13:38.512Z,29.23
2022-09-03T12:16:40.865Z,22.67
2022-09-03T12:19:16.794Z,127.72
2022-09-03T12:21:50.980Z,22.85
2022-09-03T12:24:23.672Z,23.92
2022-09-03T12:26:53.809Z,27.90
2022-09-03T12:29:27.855Z,25.42
2022-09-03T12:31:58.049Z,22.58
2022-09-03T12:34:27.549Z,24.70
2022-09-03T12:36:57.065Z,23.88
2022-09-03T12:42:23.842Z,24.08
2022-09-03T12:44:52.542Z,20.67
2022-09-03T12:47:38.588Z,25.75
2022-09-03T12:50:10.946Z,26.13
2022-09-03T12:52:43.430Z,22.77
2022-09-03T12:55:29.451Z,34.03
2022-09-03T12:58:11.442Z,25.25
2022-09-03T13:00:47.379Z,22.58
2022-09-03T13:03:20.579Z,24.90
2022-09-03T13:05:55.859Z,24.20
2022-09-03T13:08:27.974Z,21.02
2022-09-03T13:10:59.826Z,36.42
2022-09-03T13:13:32.579Z,24.63
2022-09-03T13:16:30.006Z,25.58
2022-09-03T13:19:02.849Z,20.83
2022-09-03T13:21:42.822Z,15.80
2022-09-03T13:24:40.492Z,34.28
2022-09-03T13:27:20.206Z,23.17
2022-09-03T13:30:11.204Z,32.67
2022-09-03T13:32:59.487Z,24.58
2022-09-03T13:35:35.952Z,28.17
2022-09-03T13:38:15.417Z,25.10
2022-09-03T13:40:50.049Z,29.50
2022-09-03T13:43:30.022Z,141.88
2022-09-03T13:46:04.630Z,21.30
2022-09-03T13:48:56.280Z,32.88
2022-09-03T13:51:29.994Z,19.75
2022-09-03T13:54:13.341Z,23.35
2022-09-03T13:56:57.912Z,25.42
2022-09-03T13:59:37.020Z,23.27
2022-09-03T14:02:25.796Z,22.58
2022-09-03T14:05:06.141Z,21.92
2022-09-03T14:07:52.112Z,23.73
2022-09-03T14:10:29.223Z,25.23
2022-09-03T14:13:08.365Z,24.35
2022-09-03T14:15:45.853Z,26.27
2022-09-03T14:18:25.214Z,23.60
2022-09-03T14:21:01.026Z,15.15
2022-09-03T14:23:37.878Z,25.52
2022-09-03T14:26:16.513Z,23.95
2022-09-03T14:28:50.105Z,23.55
2022-09-03T14:31:29.668Z,23.65
2022-09-03T14:34:08.439Z,24.73
2022-09-03T14:36:42.666Z,22.85
2022-09-03T14:39:26.795Z,22.23
2022-09-03T14:42:38.405Z,25.02
2022-09-03T14:45:27.764Z,24.20
2022-09-03T14:48:24.179Z,27.17
2022-09-03T14:51:07.295Z,25.70
2022-09-03T14:53:59.014Z,22.45
2022-09-03T14:56:47.111Z,24.00
2022-09-03T14:59:59.531Z,23.20
2022-09-03T15:02:54.538Z,25.23
2022-09-03T15:05:42.014Z,21.77
2022-09-03T15:08:22.364Z,25.27
2022-09-03T15:10:57.030Z,24.77
2022-09-03T15:13:29.235Z,21.27
2022-09-03T15:16:14.649Z,24.67
2022-09-03T15:18:58.891Z,22.67
2022-09-03T15:21:38.816Z,23.55
2022-09-03T15:24:18.675Z,22.80
2022-09-03T15:27:05.514Z,23.38
2022-09-03T15:29:50.334Z,23.30
2022-09-03T15:32:33.400Z,21.33
2022-09-03T15:35:09.498Z,23.33
2022-09-03T15:37:48.435Z,22.30
2022-09-03T15:40:29.426Z,21.23
2022-09-03T15:43:05.121Z,28.27
2022-09-03T15:45:40.206Z,24.52
2022-09-03T15:48:22.283Z,22.80
2022-09-03T15:50:59.116Z,22.38
2022-09-03T15:53:34.772Z,22.00
2022-09-03T15:56:21.192Z,23.90
2022-09-03T15:58:59.821Z,23.65
2022-09-03T16:01:36.021Z,24.35
2022-09-03T16:04:24.990Z,27.42
2022-09-03T16:07:01.387Z,21.65
2022-09-03T16:09:41.443Z,24.45
2022-09-03T16:12:26.952Z,20.60
2022-09-03T16:15:02.078Z,22.27
2022-09-03T16:17:35.070Z,24.05
2022-09-03T16:20:09.019Z,24.42
2022-09-03T16:22:46.819Z,23.02
2022-09-03T16:25:23.366Z,22.77
2022-09-03T16:28:07.677Z,24.33
2022-09-03T16:30:55.012Z,23.35
2022-09-03T16:33:31.691Z,22.05
2022-09-03T16:36:16.101Z,21.85
2022-09-03T16:38:54.489Z,22.40
2022-09-03T16:41:28.592Z,20.92
2022-09-03T16:44:10.264Z,22.15
2022-09-03T16:46:49.848Z,22.05
2022-09-03T16:49:38.211Z,19.67
2022-09-03T16:52:18.606Z,30.07
2022-09-03T16:55:06.711Z,22.00
2022-09-03T16:57:50.359Z,19.00
2022-09-03T17:00:22.501Z,19.30
2022-09-03T17:03:26.359Z,18.52
2022-09-03T17:06:27.084Z,20.23
2022-09-03T17:09:04.169Z,16.15
2022-09-03T17:11:47.779Z,18.77
2022-09-03T17:14:40.892Z,20.10
2022-09-03T17:17:24.286Z,18.20
2022-09-03T17:19:58.380Z,22.40
2022-09-03T17:22:41.006Z,25.63
2022-09-03T17:25:21.371Z,22.88
2022-09-03T17:27:53.415Z,23.08
2022-09-03T17:30:28.774Z,22.98
2022-09-03T17:33:32.591Z,21.88
2022-09-03T17:36:16.365Z,28.30
2022-09-03T17:39:18.451Z,30.88
2022-09-03T17:41:53.466Z,25.50
2022-09-03T17:44:40.093Z,37.70
2022-09-03T17:47:33.511Z,33.17
2022-09-03T17:50:14.587Z,28.17
2022-09-03T17:52:49.788Z,25.05
2022-09-03T17:55:27.850Z,30.60
2022-09-03T17:58:14.693Z,22.98
2022-09-03T18:00:52.874Z,19.08
2022-09-03T18:03:25.721Z,18.52
2022-09-03T18:06:01.407Z,17.23
2022-09-03T18:08:42.863Z,16.13
2022-09-03T18:11:13.452Z,26.45
2022-09-03T18:13:51.880Z,18.40
2022-09-03T18:16:27.735Z,25.85
2022-09-03T18:19:01.949Z,24.55
2022-09-03T18:21:54.978Z,20.55
2022-09-03T18:24:51.174Z,25.33
2022-09-03T18:27:40.544Z,21.15
2022-09-03T18:30:29.443Z,16.85
2022-09-03T18:33:18.826Z,15.75
2022-09-03T18:36:06.014Z,45.58
2022-09-03T18:38:55.220Z,29.23
2022-09-03T18:41:59.552Z,24.65
2022-09-03T18:45:18.304Z,21.70
2022-09-03T18:48:19.547Z,16.05
2022-09-03T18:51:11.862Z,13.30
2022-09-03T18:54:15.694Z,21.00
2022-09-03T18:57:06.793Z,20.53
2022-09-03T19:00:18.878Z,22.77
2022-09-03T19:03:29.021Z,23.27
2022-09-03T19:06:24.870Z,18.45
2022-09-03T19:09:22.050Z,16.30
2022-09-03T19:12:17.566Z,16.70
2022-09-03T19:15:12.402Z,12.90
2022-09-03T19:18:19.637Z,17.07
2022-09-03T19:21:17.282Z,11.80
2022-09-03T19:24:03.363Z,10.07
2022-09-03T19:27:00.202Z,9.77
2022-09-03T19:30:00.763Z,10.50
2022-09-03T19:32:56.215Z,9.30
2022-09-03T19:35:49.682Z,16.70
2022-09-03T19:38:46.641Z,206.27
2022-09-03T19:41:40.175Z,10.37
2022-09-03T19:44:57.937Z,28.02
2022-09-03T19:47:55.902Z,484.65
2022-09-03T19:50:48.241Z,13.13
2022-09-03T19:53:37.638Z,8.77
2022-09-03T19:56:29.306Z,10.23
2022-09-03T19:59:18.782Z,10.27
2022-09-03T20:02:07.324Z,8.93
2022-09-03T20:04:58.494Z,9.63
2022-09-03T20:07:44.433Z,10.23
2022-09-03T20:10:24.857Z,15.37
2022-09-03T20:13:08.470Z,12.73
2022-09-03T20:15:48.334Z,32.67
2022-09-03T20:18:26.216Z,28.93
2022-09-03T20:21:03.498Z,28.97
2022-09-03T20:23:37.222Z,20.43
2022-09-03T20:26:23.334Z,24.70
2022-09-03T20:29:12.586Z,18.97
2022-09-03T20:31:48.974Z,17.97
2022-09-03T20:34:44.383Z,20.33
2022-09-03T20:37:25.001Z,49.00
2022-09-03T20:40:06.701Z,252.83
2022-09-03T20:43:00.365Z,474.67
2022-09-03T20:45:34.127Z,578.90
2022-09-03T20:48:11.314Z,189.27
2022-09-03T20:51:03.587Z,408.80
2022-09-03T20:54:03.892Z,106.47
2022-09-03T20:56:38.691Z,131.10
2022-09-03T20:59:17.010Z,156.07
2022-09-03T21:01:55.953Z,168.00
2022-09-03T21:04:43.064Z,173.60
2022-09-03T21:07:24.541Z,149.93
2022-09-03T21:10:02.054Z,136.63
2022-09-03T21:12:41.326Z,117.87
2022-09-03T21:15:16.015Z,104.63
2022-09-03T21:17:57.317Z,104.23
2022-09-03T21:20:34.603Z,94.03
2022-09-03T21:23:15.509Z,78.87
2022-09-03T21:25:50.241Z,55.10
2022-09-03T21:28:36.756Z,21.63
2022-09-03T21:31:14.798Z,17.33
2022-09-03T21:33:49.155Z,23.17
2022-09-03T21:36:26.026Z,21.77
2022-09-03T21:39:01.533Z,18.07
2022-09-03T21:41:34.133Z,16.47
2022-09-03T21:44:08.733Z,18.70
2022-09-03T21:46:41.008Z,21.50
2022-09-03T21:49:11.747Z,22.13
2022-09-03T21:51:45.426Z,19.27
2022-09-03T21:54:22.988Z,16.90
2022-09-03T21:57:14.263Z,17.07
2022-09-03T22:00:12.130Z,16.50
2022-09-03T22:02:40.979Z,17.03
2022-09-03T22:05:09.902Z,16.13
2022-09-03T22:08:09.885Z,18.33
2022-09-03T22:10:49.987Z,18.27
2022-09-03T22:13:27.043Z,20.87
2022-09-03T22:16:03.356Z,26.90
2022-09-03T22:18:38.082Z,17.07
2022-09-03T22:21:14.528Z,19.70
2022-09-03T22:23:56.804Z,23.33
2022-09-03T22:26:38.213Z,18.13
2022-09-03T22:29:15.587Z,19.17
2022-09-03T22:31:57.083Z,20.60
2022-09-03T22:34:42.736Z,49.57
2022-09-03T22:37:23.699Z,78.13
2022-09-03T22:39:54.044Z,76.47
2022-09-03T22:42:46.002Z,49.67
2022-09-03T22:45:40.515Z,22.30
2022-09-03T22:48:21.237Z,18.97
2022-09-03T22:50:56.777Z,20.77
2022-09-03T22:53:47.409Z,18.23
2022-09-03T22:56:22.312Z,19.60
2022-09-03T22:58:57.614Z,17.63
2022-09-03T23:01:31.866Z,17.70
2022-09-03T23:04:08.481Z,19.23
2022-09-03T23:06:44.193Z,17.27
2022-09-03T23:09:21.008Z,18.47
2022-09-03T23:11:54.187Z,16.33
2022-09-03T23:14:28.519Z,19.60
2022-09-03T23:17:00.870Z,56.63
2022-09-03T23:19:51.888Z,63.33
2022-09-03T23:22:24.853Z,471.67
2022-09-03T23:25:02.311Z,28.97
2022-09-03T23:27:36.528Z,47.80
2022-09-03T23:30:08.416Z,24.83
2022-09-03T23:32:37.099Z,26.33
2022-09-03T23:35:16.431Z,26.00
2022-09-03T23:38:09.351Z,32.50
2022-09-03T23:40:47.157Z,38.93
2022-09-03T23:43:51.112Z,34.13
2022-09-03T23:46:27.743Z,57.60
2022-09-03T23:49:09.131Z,205.83
2022-09-03T23:51:48.813Z,239.53
2022-09-03T23:54:27.091Z,248.33
2022-09-03T23:57:18.646Z,385.40
